createdAt,value
2019-04-29T00:01:46.903Z,1.80
2019-04-29T00:04:13.807Z,1.40
2019-04-29T00:06:41.772Z,1.90
2019-04-29T00:09:10.732Z,1.83
2019-04-29T00:11:37.761Z,1.57
2019-04-29T00:14:04.331Z,1.90
2019-04-29T00:16:31.195Z,1.60
2019-04-29T00:18:57.915Z,1.50
2019-04-29T00:21:25.437Z,1.85
2019-04-29T00:24:03.677Z,1.60
2019-04-29T00:26:23.948Z,1.93
2019-04-29T00:28:50.598Z,1.60
2019-04-29T00:31:19.470Z,1.93
2019-04-29T00:33:46.964Z,1.60
2019-04-29T00:36:15.330Z,1.77
2019-04-29T00:38:42.190Z,1.60
2019-04-29T00:41:09.001Z,1.93
2019-04-29T00:43:36.198Z,2.00
2019-04-29T00:46:03.279Z,1.60
2019-04-29T00:48:30.216Z,1.60
2019-04-29T00:50:56.842Z,1.90
2019-04-29T00:53:23.722Z,1.50
2019-04-29T00:55:50.762Z,1.47
2019-04-29T00:58:17.420Z,1.67
2019-04-29T01:00:44.048Z,1.60
2019-04-29T01:03:10.813Z,1.80
2019-04-29T01:05:37.510Z,1.60
2019-04-29T01:08:04.259Z,1.43
2019-04-29T01:10:31.088Z,1.75
2019-04-29T01:13:02.327Z,1.67
2019-04-29T01:15:29.248Z,1.65
2019-04-29T01:17:55.832Z,1.43
2019-04-29T01:20:22.410Z,1.77
2019-04-29T01:22:49.367Z,2.03
2019-04-29T01:25:16.001Z,1.50
2019-04-29T01:27:42.987Z,1.55
2019-04-29T01:30:09.943Z,1.40
2019-04-29T01:32:36.805Z,1.25
2019-04-29T01:35:04.828Z,1.57
2019-04-29T01:37:31.528Z,1.50
2019-04-29T01:39:58.246Z,1.70
2019-04-29T01:42:24.832Z,1.43
2019-04-29T01:44:51.834Z,1.80
2019-04-29T01:47:18.429Z,1.47
2019-04-29T01:49:45.011Z,1.57
2019-04-29T01:52:11.666Z,1.70
2019-04-29T01:54:38.291Z,1.90
2019-04-29T01:57:04.909Z,1.63
2019-04-29T01:59:31.637Z,1.90
2019-04-29T02:01:58.244Z,1.73
2019-04-29T02:04:24.834Z,1.80
2019-04-29T02:06:51.448Z,1.20
2019-04-29T02:09:18.329Z,1.77
2019-04-29T02:11:45.185Z,1.90
2019-04-29T02:14:11.822Z,1.73
2019-04-29T02:16:38.409Z,1.70
2019-04-29T02:19:05.354Z,1.50
2019-04-29T02:21:32.791Z,1.60
2019-04-29T02:23:59.544Z,1.57
2019-04-29T02:26:26.459Z,1.73
2019-04-29T02:28:53.577Z,1.60
2019-04-29T02:31:20.415Z,1.70
2019-04-29T02:33:47.054Z,1.52
2019-04-29T02:36:13.918Z,1.72
2019-04-29T02:38:40.505Z,1.60
2019-04-29T02:41:07.485Z,1.53
2019-04-29T02:43:37.204Z,1.70
2019-04-29T02:46:07.949Z,1.80
2019-04-29T02:48:37.999Z,1.77
2019-04-29T02:51:05.006Z,1.53
2019-04-29T02:53:35.227Z,1.30
2019-04-29T02:56:04.660Z,1.57
2019-04-29T02:58:33.751Z,2.00
2019-04-29T03:01:03.511Z,1.90
2019-04-29T03:03:35.886Z,1.80
2019-04-29T03:06:02.406Z,1.90
2019-04-29T03:08:29.005Z,2.00
2019-04-29T03:10:55.586Z,1.90
2019-04-29T03:13:22.472Z,2.08
2019-04-29T03:15:49.062Z,2.10
2019-04-29T03:18:15.674Z,1.80
2019-04-29T03:20:42.327Z,1.70
2019-04-29T03:23:11.523Z,2.00
2019-04-29T03:25:41.477Z,1.73
2019-04-29T03:28:10.540Z,1.67
2019-04-29T03:30:39.482Z,1.60
2019-04-29T03:33:08.199Z,1.73
2019-04-29T03:35:35.948Z,1.70
2019-04-29T03:38:06.686Z,1.85
2019-04-29T03:40:33.239Z,1.80
2019-04-29T03:43:03.799Z,1.83
2019-04-29T03:45:31.411Z,1.80
2019-04-29T03:47:59.144Z,2.00
2019-04-29T03:50:28.600Z,1.70
2019-04-29T03:52:59.111Z,1.60
2019-04-29T03:55:38.981Z,1.63
2019-04-29T03:57:59.767Z,2.60
2019-04-29T04:00:31.988Z,1.90
2019-04-29T04:02:58.914Z,1.80
2019-04-29T04:05:28.070Z,1.90
2019-04-29T04:07:57.667Z,1.90
2019-04-29T04:10:26.321Z,1.73
2019-04-29T04:12:52.977Z,2.00
2019-04-29T04:15:21.982Z,2.50
2019-04-29T04:17:50.296Z,2.03
2019-04-29T04:20:17.180Z,2.20
2019-04-29T04:22:43.791Z,2.10
2019-04-29T04:25:10.520Z,1.80
2019-04-29T04:27:41.422Z,2.07
2019-04-29T04:30:10.648Z,2.10
2019-04-29T04:32:37.243Z,2.30
2019-04-29T04:35:04.138Z,1.70
2019-04-29T04:37:34.391Z,2.10
2019-04-29T04:40:01.330Z,1.73
2019-04-29T04:42:30.015Z,1.93
2019-04-29T04:44:57.374Z,1.70
2019-04-29T04:47:24.308Z,2.20
2019-04-29T04:49:50.917Z,2.00
2019-04-29T04:52:17.497Z,1.80
2019-04-29T04:54:44.349Z,1.90
2019-04-29T04:57:11.034Z,1.80
2019-04-29T04:59:37.632Z,1.93
2019-04-29T05:02:04.263Z,2.60
2019-04-29T05:04:30.902Z,1.80
2019-04-29T05:06:58.161Z,1.70
2019-04-29T05:09:24.786Z,1.80
2019-04-29T05:11:51.414Z,2.50
2019-04-29T05:14:18.302Z,2.20
2019-04-29T05:16:45.114Z,2.60
2019-04-29T05:19:11.957Z,1.77
2019-04-29T05:21:38.571Z,1.87
2019-04-29T05:24:05.532Z,2.62
2019-04-29T05:26:32.224Z,3.10
2019-04-29T05:28:59.532Z,2.60
2019-04-29T05:31:26.074Z,2.70
2019-04-29T05:33:52.898Z,2.63
2019-04-29T05:36:19.490Z,2.10
2019-04-29T05:38:46.088Z,2.43
2019-04-29T05:41:12.700Z,2.40
2019-04-29T05:43:39.296Z,2.47
2019-04-29T05:46:07.545Z,3.00
2019-04-29T05:48:34.625Z,3.08
2019-04-29T05:51:01.458Z,2.70
2019-04-29T05:53:28.057Z,4.20
2019-04-29T05:55:54.827Z,2.40
2019-04-29T05:58:21.696Z,2.70
2019-04-29T06:00:48.277Z,2.40
2019-04-29T06:03:15.378Z,2.20
2019-04-29T06:05:41.957Z,2.00
2019-04-29T06:08:08.876Z,2.00
2019-04-29T06:10:36.395Z,2.03
2019-04-29T06:13:02.977Z,2.50
2019-04-29T06:15:29.572Z,2.30
2019-04-29T06:17:56.184Z,2.60
2019-04-29T06:20:23.073Z,2.40
2019-04-29T06:22:49.667Z,2.97
2019-04-29T06:25:16.529Z,1.87
2019-04-29T06:27:43.120Z,2.17
2019-04-29T06:30:09.783Z,2.10
2019-04-29T06:32:36.452Z,2.07
2019-04-29T06:35:03.362Z,2.43
2019-04-29T06:37:30.130Z,1.90
2019-04-29T06:39:59.938Z,2.00
2019-04-29T06:42:33.278Z,1.90
2019-04-29T06:45:01.534Z,2.30
2019-04-29T06:47:31.231Z,1.93
2019-04-29T06:50:00.094Z,2.10
2019-04-29T06:52:30.087Z,1.90
2019-04-29T06:54:58.589Z,1.90
2019-04-29T06:57:27.551Z,1.87
2019-04-29T06:59:54.850Z,2.30
2019-04-29T07:02:25.339Z,1.90
2019-04-29T07:04:54.869Z,1.70
2019-04-29T07:07:21.945Z,1.43
2019-04-29T07:09:56.698Z,1.95
2019-04-29T07:12:26.692Z,1.70
2019-04-29T07:14:59.797Z,1.30
2019-04-29T07:17:28.526Z,1.57
2019-04-29T07:19:57.633Z,1.50
2019-04-29T07:22:31.493Z,1.40
2019-04-29T07:25:00.910Z,1.40
2019-04-29T07:27:28.384Z,1.50
2019-04-29T07:29:55.240Z,1.30
2019-04-29T07:32:21.877Z,1.50
2019-04-29T07:34:51.837Z,1.40
2019-04-29T07:37:20.715Z,1.30
2019-04-29T07:39:51.025Z,1.30
2019-04-29T07:42:20.149Z,1.30
2019-04-29T07:44:48.948Z,1.32
2019-04-29T07:47:25.000Z,1.17
2019-04-29T07:49:51.396Z,1.10
2019-04-29T07:52:21.930Z,1.20
2019-04-29T07:54:55.185Z,1.20
2019-04-29T07:57:28.461Z,1.10
2019-04-29T08:02:45.390Z,1.20
2019-04-29T08:05:15.544Z,1.10
2019-04-29T08:07:45.779Z,1.40
2019-04-29T08:10:28.618Z,0.90
2019-04-29T08:13:01.861Z,0.93
2019-04-29T08:15:36.641Z,1.10
2019-04-29T08:29:01.610Z,1.10
2019-04-29T08:31:32.700Z,1.00
2019-04-29T08:33:59.385Z,1.10
2019-04-29T08:36:28.405Z,0.90
2019-04-29T08:41:29.844Z,0.90
2019-04-29T08:44:14.728Z,1.02
2019-04-29T08:46:27.757Z,0.93
2019-04-29T08:48:55.241Z,0.90
2019-04-29T08:51:22.611Z,0.80
2019-04-29T08:53:55.654Z,0.80
2019-04-29T08:56:29.005Z,0.80
2019-04-29T08:58:55.499Z,1.10
2019-04-29T09:01:33.869Z,0.73
2019-04-29T09:04:05.860Z,0.93
2019-04-29T09:06:38.370Z,0.87
2019-04-29T09:09:10.585Z,0.80
2019-04-29T09:11:37.370Z,0.83
2019-04-29T09:14:05.917Z,0.90
2019-04-29T09:16:35.036Z,0.87
2019-04-29T09:19:05.379Z,0.90
2019-04-29T09:21:36.570Z,1.00
2019-04-29T09:24:06.092Z,0.70
2019-04-29T09:26:37.423Z,0.87
2019-04-29T09:29:10.934Z,0.63
2019-04-29T09:31:39.064Z,0.65
2019-04-29T09:34:26.518Z,0.70
2019-04-29T09:36:56.725Z,0.50
2019-04-29T09:39:25.783Z,0.77
2019-04-29T09:41:55.865Z,0.50
2019-04-29T09:44:24.657Z,0.63
2019-04-29T09:46:54.089Z,0.60
2019-04-29T09:49:22.132Z,0.70
2019-04-29T09:51:51.688Z,0.80
2019-04-29T09:54:19.704Z,1.40
2019-04-29T09:56:48.485Z,0.70
2019-04-29T09:59:21.641Z,0.77
2019-04-29T10:01:54.604Z,0.70
2019-04-29T10:04:28.447Z,0.43
2019-04-29T10:06:57.743Z,0.60
2019-04-29T10:09:26.085Z,0.60
2019-04-29T10:11:54.121Z,0.87
2019-04-29T10:14:24.315Z,0.80
2019-04-29T10:16:56.290Z,0.77
2019-04-29T10:19:23.269Z,0.70
2019-04-29T10:21:54.516Z,0.60
2019-04-29T10:27:11.581Z,0.70
2019-04-29T10:29:40.896Z,0.73
2019-04-29T10:32:10.010Z,0.67
2019-04-29T10:34:43.043Z,0.83
2019-04-29T10:37:07.913Z,0.80
2019-04-29T10:39:36.816Z,0.60
2019-04-29T10:42:08.359Z,0.90
2019-04-29T10:44:37.514Z,0.70
2019-04-29T10:47:22.158Z,1.20
2019-04-29T10:49:51.574Z,0.80
2019-04-29T10:52:21.203Z,0.60
2019-04-29T10:55:06.530Z,0.73
2019-04-29T10:57:49.783Z,0.70
2019-04-29T11:00:17.008Z,0.73
2019-04-29T11:02:49.414Z,0.80
2019-04-29T11:05:18.977Z,0.77
2019-04-29T11:07:46.693Z,0.80
2019-04-29T11:10:24.880Z,0.87
2019-04-29T11:12:54.601Z,1.00
2019-04-29T11:15:17.356Z,0.50
2019-04-29T11:17:46.428Z,0.80
2019-04-29T11:20:16.035Z,0.70
2019-04-29T11:22:47.662Z,0.60
2019-04-29T11:25:18.446Z,0.70
2019-04-29T11:27:45.422Z,0.70
2019-04-29T11:30:14.545Z,0.90
2019-04-29T11:32:47.310Z,0.70
2019-04-29T11:35:17.946Z,0.83
2019-04-29T11:37:49.992Z,1.10
2019-04-29T11:40:20.612Z,1.10
2019-04-29T11:42:52.689Z,0.60
2019-04-29T11:45:23.150Z,1.23
2019-04-29T11:47:52.442Z,2.30
2019-04-29T11:50:21.590Z,5.23
2019-04-29T11:52:48.759Z,1.10
2019-04-29T11:55:21.789Z,0.87
2019-04-29T11:57:51.374Z,1.00
2019-04-29T12:00:19.166Z,0.70
2019-04-29T12:02:47.124Z,2.20
2019-04-29T12:05:17.810Z,0.90
2019-04-29T12:07:44.685Z,1.23
2019-04-29T12:10:12.982Z,1.00
2019-04-29T12:12:43.663Z,0.80
2019-04-29T12:15:15.411Z,0.80
2019-04-29T12:17:42.823Z,0.60
2019-04-29T12:20:10.029Z,0.88
2019-04-29T12:25:27.539Z,0.80
2019-04-29T12:28:01.513Z,1.37
2019-04-29T12:30:23.456Z,0.50
2019-04-29T12:32:56.771Z,0.70
2019-04-29T12:35:23.421Z,0.87
2019-04-29T12:40:39.495Z,1.73
2019-04-29T12:43:06.510Z,1.30
2019-04-29T12:45:34.288Z,1.13
2019-04-29T12:48:02.642Z,1.00
2019-04-29T12:50:29.649Z,1.10
2019-04-29T12:52:57.683Z,0.73
2019-04-29T12:55:43.487Z,0.90
2019-04-29T12:57:53.604Z,0.93
2019-04-29T13:00:20.579Z,1.20
2019-04-29T13:02:47.368Z,1.10
2019-04-29T13:05:16.606Z,0.90
2019-04-29T13:07:43.793Z,0.80
2019-04-29T13:10:13.596Z,0.80
2019-04-29T13:12:44.040Z,0.90
2019-04-29T13:15:12.681Z,0.70
2019-04-29T13:17:37.374Z,0.70
2019-04-29T13:20:07.210Z,0.80
2019-04-29T13:22:33.068Z,0.70
2019-04-29T13:24:59.994Z,0.70
2019-04-29T13:27:28.527Z,0.60
2019-04-29T13:29:55.606Z,0.63
2019-04-29T13:32:25.354Z,0.60
2019-04-29T13:34:52.552Z,0.97
2019-04-29T13:37:20.021Z,0.70
2019-04-29T13:39:48.423Z,1.25
2019-04-29T13:42:15.958Z,1.23
2019-04-29T13:45:04.713Z,0.80
2019-04-29T13:47:12.880Z,0.80
2019-04-29T13:49:40.329Z,0.90
2019-04-29T13:52:42.269Z,1.00
2019-04-29T13:54:46.759Z,1.57
2019-04-29T13:57:15.959Z,1.40
2019-04-29T13:59:49.150Z,1.13
2019-04-29T14:07:57.902Z,0.50
2019-04-29T14:10:24.710Z,0.77
2019-04-29T14:13:05.161Z,0.80
2019-04-29T14:15:20.666Z,0.80
2019-04-29T14:17:47.574Z,0.70
2019-04-29T14:20:15.543Z,0.80
2019-04-29T14:22:43.257Z,0.70
2019-04-29T14:33:38.858Z,0.70
2019-04-29T14:36:05.456Z,0.97
2019-04-29T14:38:35.946Z,1.03
2019-04-29T14:41:01.450Z,0.80
2019-04-29T14:43:31.853Z,0.87
2019-04-29T14:45:56.458Z,0.77
2019-04-29T14:48:23.323Z,0.70
2019-04-29T14:50:54.055Z,0.80
2019-04-29T14:53:19.555Z,0.90
2019-04-29T14:55:47.154Z,0.80
2019-04-29T14:58:14.096Z,1.00
2019-04-29T15:00:41.843Z,0.90
2019-04-29T15:03:08.866Z,0.90
2019-04-29T15:05:36.353Z,0.70
2019-04-29T15:08:03.251Z,0.70
2019-04-29T15:10:31.135Z,0.70
2019-04-29T15:13:18.289Z,0.60
2019-04-29T15:15:34.205Z,0.80
2019-04-29T15:17:59.698Z,0.80
2019-04-29T15:20:30.271Z,0.83
2019-04-29T15:22:57.740Z,0.80
2019-04-29T15:25:25.810Z,0.60
2019-04-29T15:27:52.583Z,0.67
2019-04-29T15:30:23.285Z,0.60
2019-04-29T15:32:53.199Z,0.53
2019-04-29T15:35:19.779Z,0.67
2019-04-29T15:37:47.651Z,1.00
2019-04-29T15:40:14.241Z,0.90
2019-04-29T15:42:43.227Z,0.80
2019-04-29T15:45:09.470Z,0.90
2019-04-29T15:47:36.116Z,0.60
2019-04-29T15:50:18.134Z,0.56
2019-04-29T15:52:33.226Z,0.80
2019-04-29T15:54:59.850Z,0.77
2019-04-29T15:57:26.817Z,0.73
2019-04-29T15:59:58.921Z,0.83
2019-04-29T16:02:22.605Z,0.70
2019-04-29T16:04:49.524Z,0.80
2019-04-29T16:07:17.655Z,0.70
2019-04-29T16:09:51.904Z,0.80
2019-04-29T16:12:15.386Z,0.70
2019-04-29T16:14:41.718Z,0.93
2019-04-29T16:17:09.773Z,0.63
2019-04-29T16:19:36.417Z,0.80
2019-04-29T16:22:03.005Z,0.70
2019-04-29T16:24:37.637Z,0.90
2019-04-29T16:27:01.121Z,1.03
2019-04-29T16:29:26.508Z,0.60
2019-04-29T16:31:54.948Z,0.70
2019-04-29T16:34:21.579Z,0.90
2019-04-29T16:36:50.042Z,0.70
2019-04-29T16:39:17.082Z,0.80
2019-04-29T16:41:51.132Z,0.60
2019-04-29T16:44:34.255Z,0.60
2019-04-29T16:46:43.187Z,0.60
2019-04-29T16:49:11.103Z,0.60
2019-04-29T16:51:37.791Z,0.80
2019-04-29T16:54:04.412Z,0.80
2019-04-29T16:56:31.565Z,0.70
2019-04-29T16:58:58.186Z,0.77
2019-04-29T17:01:27.022Z,0.80
2019-04-29T17:03:54.795Z,0.60
2019-04-29T17:06:22.387Z,0.70
2019-04-29T17:08:50.582Z,0.77
2019-04-29T17:11:19.391Z,0.65
2019-04-29T17:13:48.936Z,0.63
2019-04-29T17:16:15.909Z,0.67
2019-04-29T17:18:42.866Z,0.90
2019-04-29T17:21:09.905Z,0.73
2019-04-29T17:23:37.141Z,0.80
2019-04-29T17:26:03.743Z,0.97
2019-04-29T17:28:31.339Z,0.70
2019-04-29T17:30:58.689Z,0.90
2019-04-29T17:33:28.411Z,0.77
2019-04-29T17:35:55.787Z,0.83
2019-04-29T17:38:23.365Z,0.80
2019-04-29T17:40:51.026Z,0.90
2019-04-29T17:43:18.306Z,1.22
2019-04-29T17:59:49.073Z,3.00
2019-04-29T18:02:21.686Z,3.10
2019-04-29T18:04:45.645Z,4.67
2019-04-29T18:07:12.591Z,3.90
2019-04-29T18:09:39.782Z,0.70
2019-04-29T18:12:06.402Z,1.13
2019-04-29T18:14:40.435Z,1.10
2019-04-29T18:17:02.519Z,1.80
2019-04-29T18:19:30.847Z,1.20
2019-04-29T18:21:57.449Z,0.70
2019-04-29T18:24:25.402Z,0.70
2019-04-29T18:26:52.900Z,0.60
2019-04-29T18:29:19.598Z,0.77
2019-04-29T18:31:46.658Z,0.50
2019-04-29T18:34:15.189Z,0.50
2019-04-29T18:36:41.973Z,0.57
2019-04-29T18:39:09.166Z,0.60
2019-04-29T18:41:36.033Z,0.50
2019-04-29T18:44:04.932Z,0.60
2019-04-29T18:46:31.271Z,0.60
2019-04-29T18:49:03.013Z,0.60
2019-04-29T18:51:28.884Z,0.60
2019-04-29T18:53:58.579Z,0.60
2019-04-29T18:59:13.207Z,0.60
2019-04-29T19:01:41.277Z,0.70
2019-04-29T19:04:13.767Z,0.33
2019-04-29T19:06:40.606Z,0.40
2019-04-29T19:09:17.953Z,0.40
2019-04-29T19:11:38.459Z,0.50
2019-04-29T19:14:08.713Z,0.40
2019-04-29T19:16:36.286Z,0.63
2019-04-29T19:19:05.135Z,0.40
2019-04-29T19:21:34.307Z,0.43
2019-04-29T19:24:01.329Z,0.60
2019-04-29T19:26:28.199Z,0.50
2019-04-29T19:28:56.814Z,0.40
2019-04-29T19:31:25.170Z,0.60
2019-04-29T19:33:52.226Z,0.47
2019-04-29T19:36:21.798Z,0.60
2019-04-29T19:38:47.845Z,0.40
2019-04-29T19:41:16.285Z,0.53
2019-04-29T19:43:43.025Z,0.53
2019-04-29T19:46:36.848Z,0.30
2019-04-29T19:49:07.432Z,0.50
2019-04-29T19:51:29.814Z,0.50
2019-04-29T19:54:10.471Z,0.43
2019-04-29T19:56:49.408Z,0.60
2019-04-29T19:59:18.674Z,0.50
2019-04-29T20:02:01.695Z,0.50
2019-04-29T20:04:23.186Z,0.60
2019-04-29T20:06:56.099Z,0.50
2019-04-29T20:09:24.336Z,0.47
2019-04-29T20:11:55.852Z,0.47
2019-04-29T20:14:27.400Z,0.67
2019-04-29T20:16:57.337Z,0.60
2019-04-29T20:19:22.189Z,0.60
2019-04-29T20:21:51.145Z,0.68
2019-04-29T20:24:22.828Z,0.50
2019-04-29T20:26:47.490Z,0.53
2019-04-29T20:29:15.920Z,0.40
2019-04-29T20:31:49.134Z,0.53
2019-04-29T20:34:11.453Z,0.47
2019-04-29T20:36:42.668Z,0.50
2019-04-29T20:39:15.095Z,0.80
2019-04-29T20:41:42.021Z,0.60
2019-04-29T20:44:09.639Z,0.62
2019-04-29T20:46:45.435Z,0.43
2019-04-29T20:49:05.816Z,0.70
2019-04-29T20:51:48.998Z,0.60
2019-04-29T20:54:01.401Z,0.60
2019-04-29T20:56:29.873Z,0.60
2019-04-29T20:58:56.691Z,0.70
2019-04-29T21:01:25.346Z,0.70
2019-04-29T21:03:56.508Z,0.60
2019-04-29T21:06:22.789Z,0.60
2019-04-29T21:08:50.943Z,0.50
2019-04-29T21:11:21.011Z,0.60
2019-04-29T21:13:48.846Z,0.53
2019-04-29T21:16:15.188Z,0.50
2019-04-29T21:18:45.527Z,0.50
2019-04-29T21:21:10.650Z,0.43
2019-04-29T21:23:37.446Z,0.60
2019-04-29T21:26:05.378Z,0.42
2019-04-29T21:28:38.224Z,0.30
2019-04-29T21:31:01.157Z,0.60
2019-04-29T21:33:27.817Z,0.40
2019-04-29T21:35:57.800Z,0.50
2019-04-29T21:38:23.485Z,0.30
2019-04-29T21:40:50.421Z,0.50
2019-04-29T21:43:17.769Z,0.50
2019-04-29T21:45:48.259Z,0.60
2019-04-29T21:48:13.097Z,0.47
2019-04-29T21:50:40.093Z,0.43
2019-04-29T21:53:07.036Z,0.50
2019-04-29T21:55:35.731Z,0.50
2019-04-29T21:58:02.541Z,0.57
2019-04-29T22:00:29.417Z,0.47
2019-04-29T22:03:00.554Z,0.50
2019-04-29T22:05:27.307Z,0.40
2019-04-29T22:07:54.239Z,0.40
2019-04-29T22:10:25.148Z,0.30
2019-04-29T22:12:50.975Z,0.40
2019-04-29T22:15:32.679Z,0.40
2019-04-29T22:18:01.309Z,0.50
2019-04-29T22:43:25.339Z,0.57
2019-04-29T22:45:52.548Z,0.50
2019-04-29T22:48:20.168Z,0.57
2019-04-29T22:50:47.424Z,0.60
2019-04-29T22:53:14.796Z,0.50
2019-04-29T22:55:41.529Z,0.50
2019-04-29T22:58:09.755Z,0.50
2019-04-29T23:00:37.063Z,0.40
2019-04-29T23:03:03.935Z,0.60
2019-04-29T23:05:31.033Z,0.50
2019-04-29T23:08:00.318Z,0.60
2019-04-29T23:10:27.892Z,0.50
2019-04-29T23:15:41.178Z,0.50
2019-04-29T23:18:07.775Z,0.40
2019-04-29T23:20:35.278Z,0.50
2019-04-29T23:23:02.451Z,0.40
2019-04-29T23:25:29.960Z,0.40
2019-04-29T23:27:56.659Z,0.37
2019-04-29T23:30:23.293Z,0.50
2019-04-29T23:32:50.186Z,0.40
2019-04-29T23:35:16.840Z,0.40
2019-04-29T23:37:45.747Z,0.43
2019-04-29T23:40:12.447Z,0.60
2019-04-29T23:42:39.377Z,0.50
